Time;durP1;ratioP1;P1;durP2;ratioP2;P2;SDS_P1;SDS_P2;PMS_P1;PMS_P2;Temp;Humidity;BMP_temperature;BMP_pressure;BME280_temperature;BME280_humidity;BME280_pressure;Samples;Min_cycle;Max_cycle;Signal;HPM_P1;HPM_P2
2024/03/18 00:00:21;;;;;;;9.65;6.82;;;12.80;98.80;;;;;;2090929;28;20718;-71
2024/03/18 00:01:22;;;;;;;7.07;6.38;;;12.80;98.90;;;;;;2094797;28;20040;-71
2024/03/18 00:02:30;;;;;;;9.05;6.78;;;12.80;99.00;;;;;;2092879;28;20031;-71
2024/03/18 00:03:31;;;;;;;8.93;6.50;;;12.80;99.30;;;;;;2094940;28;20396;-71
2024/03/18 00:04:32;;;;;;;7.00;6.13;;;12.80;99.60;;;;;;2094520;28;20040;-71
2024/03/18 00:05:33;;;;;;;7.22;6.10;;;12.80;99.70;;;;;;2092829;28;20025;-71
2024/03/18 00:06:33;;;;;;;7.68;6.72;;;12.80;99.90;;;;;;2090545;28;20946;-71
2024/03/18 00:07:34;;;;;;;7.70;6.47;;;12.80;99.90;;;;;;2092509;28;20029;-71
2024/03/18 00:08:40;;;;;;;8.40;6.68;;;12.70;99.90;;;;;;2090300;28;20148;-71
2024/03/18 00:09:43;;;;;;;7.80;6.55;;;12.70;99.90;;;;;;2093809;28;20033;-71
2024/03/18 00:10:44;;;;;;;7.40;6.63;;;12.70;99.90;;;;;;2092869;28;20544;-71
2024/03/18 00:11:44;;;;;;;8.52;6.70;;;12.70;99.90;;;;;;2092367;28;20393;-71
2024/03/18 00:12:45;;;;;;;7.95;6.72;;;12.70;99.90;;;;;;2091451;28;20059;-69
2024/03/18 00:13:48;;;;;;;7.35;5.65;;;12.70;99.90;;;;;;2091722;28;20496;-71
2024/03/18 00:14:49;;;;;;;7.07;6.43;;;12.70;99.90;;;;;;2093877;28;20075;-71
2024/03/18 00:15:49;;;;;;;7.40;6.70;;;12.70;99.90;;;;;;2093071;28;20029;-71
2024/03/18 00:16:50;;;;;;;8.27;7.50;;;12.70;99.90;;;;;;2091907;28;20067;-71
2024/03/18 00:17:50;;;;;;;8.15;7.35;;;12.70;99.90;;;;;;2091495;28;20468;-71
2024/03/18 00:18:51;;;;;;;7.57;6.82;;;12.70;99.90;;;;;;2091647;28;20028;-71
2024/03/18 00:19:52;;;;;;;7.60;6.85;;;12.70;99.90;;;;;;2092268;28;20082;-70
2024/03/18 00:20:52;;;;;;;7.55;6.57;;;12.70;99.90;;;;;;2091611;28;20542;-71
2024/03/18 00:21:53;;;;;;;9.43;7.53;;;12.80;99.90;;;;;;2092174;28;20031;-71
2024/03/18 00:22:54;;;;;;;8.13;6.60;;;12.80;99.90;;;;;;2090375;28;20528;-71
2024/03/18 00:23:54;;;;;;;8.43;7.47;;;12.80;99.90;;;;;;2092970;28;20393;-70
2024/03/18 00:24:57;;;;;;;8.15;7.35;;;12.80;99.90;;;;;;2093220;28;20039;-71
2024/03/18 00:25:58;;;;;;;11.48;8.20;;;12.80;99.90;;;;;;2092457;28;20044;-70
2024/03/18 00:26:59;;;;;;;7.75;6.93;;;12.80;99.90;;;;;;2092880;28;20078;-71
2024/03/18 00:28:00;;;;;;;8.18;7.20;;;12.80;99.90;;;;;;2092797;28;20036;-69
2024/03/18 00:29:00;;;;;;;8.73;6.95;;;12.80;99.90;;;;;;2092075;28;20024;-71
2024/03/18 00:30:01;;;;;;;11.05;8.35;;;12.70;99.90;;;;;;2093202;28;20071;-70
2024/03/18 00:31:02;;;;;;;6.88;6.18;;;12.70;99.90;;;;;;2092924;28;20032;-71
2024/03/18 00:32:03;;;;;;;8.90;6.95;;;12.80;99.90;;;;;;2091667;28;20052;-70
2024/03/18 00:33:04;;;;;;;9.15;7.40;;;12.70;99.90;;;;;;2092636;28;20024;-70
2024/03/18 00:34:04;;;;;;;8.88;7.63;;;12.80;99.90;;;;;;2090749;28;20083;-70
2024/03/18 00:35:05;;;;;;;11.07;8.13;;;12.80;99.90;;;;;;2092968;28;20135;-71
2024/03/18 00:36:06;;;;;;;9.05;8.13;;;12.70;99.90;;;;;;2090079;28;20068;-70
2024/03/18 00:37:07;;;;;;;10.35;7.45;;;12.70;99.90;;;;;;2090871;28;20044;-70
2024/03/18 00:38:07;;;;;;;8.82;7.93;;;12.70;99.90;;;;;;2091766;28;20090;-71
2024/03/18 00:39:08;;;;;;;8.90;7.43;;;12.70;99.90;;;;;;2089820;28;20541;-71
2024/03/18 00:40:09;;;;;;;9.15;7.95;;;12.70;99.90;;;;;;2091838;28;21090;-70
2024/03/18 00:42:32;;;;;;;7.93;7.17;;;12.70;99.90;;;;;;2091472;28;20029;-71
2024/03/18 00:43:33;;;;;;;10.95;9.35;;;12.70;99.90;;;;;;2091729;28;20301;-71
2024/03/18 00:44:33;;;;;;;12.65;8.20;;;12.70;99.90;;;;;;2093945;28;20050;-71
2024/03/18 00:45:34;;;;;;;10.13;8.20;;;12.70;99.90;;;;;;2089687;28;20060;-71
2024/03/18 00:46:36;;;;;;;9.70;8.70;;;12.70;99.90;;;;;;2091307;28;20025;-69
2024/03/18 00:47:36;;;;;;;10.00;7.97;;;12.70;99.90;;;;;;2090550;28;20016;-70
2024/03/18 00:48:37;;;;;;;9.50;8.38;;;12.60;99.90;;;;;;2090077;28;20048;-70
2024/03/18 00:49:38;;;;;;;10.77;8.02;;;12.60;99.90;;;;;;2090868;28;20104;-70
2024/03/18 00:50:38;;;;;;;10.18;8.88;;;12.60;99.90;;;;;;2093970;28;20033;-70
2024/03/18 00:51:39;;;;;;;11.70;9.40;;;12.60;99.90;;;;;;2092424;28;20066;-70
2024/03/18 00:52:40;;;;;;;10.35;8.65;;;12.60;99.90;;;;;;2093571;28;20061;-70
2024/03/18 00:53:40;;;;;;;9.68;8.57;;;12.60;99.90;;;;;;2090753;28;20496;-72
2024/03/18 00:54:41;;;;;;;12.38;8.88;;;12.60;99.90;;;;;;2092713;28;20027;-70
2024/03/18 00:55:44;;;;;;;9.40;8.48;;;12.60;99.90;;;;;;2092908;28;20115;-70
2024/03/18 00:56:46;;;;;;;10.70;9.23;;;12.60;99.90;;;;;;2090644;28;20029;-70
2024/03/18 00:57:46;;;;;;;12.68;9.60;;;12.60;99.90;;;;;;2090855;28;20436;-69
2024/03/18 00:58:47;;;;;;;12.43;9.05;;;12.50;99.90;;;;;;2090850;28;20033;-70
2024/03/18 00:59:48;;;;;;;10.13;9.02;;;12.50;99.90;;;;;;2092678;28;20031;-70
2024/03/18 01:00:48;;;;;;;10.10;8.30;;;12.60;99.90;;;;;;2091017;28;20457;-69
2024/03/18 01:01:50;;;;;;;10.50;8.98;;;12.60;99.90;;;;;;2091210;28;20112;-70
2024/03/18 01:02:53;;;;;;;9.63;8.63;;;12.50;99.90;;;;;;2090382;28;20096;-70
2024/03/18 01:03:54;;;;;;;9.77;8.77;;;12.50;99.90;;;;;;2093712;28;20536;-70
2024/03/18 01:04:54;;;;;;;10.10;9.10;;;12.50;99.90;;;;;;2090246;28;20562;-71
2024/03/18 01:05:55;;;;;;;11.07;9.93;;;12.50;99.90;;;;;;2090688;28;20021;-69
2024/03/18 01:06:58;;;;;;;10.45;8.75;;;12.50;99.90;;;;;;2091495;28;20028;-70
2024/03/18 01:07:58;;;;;;;10.07;8.82;;;12.50;99.90;;;;;;2091023;28;20108;-69
2024/03/18 01:08:59;;;;;;;10.50;9.40;;;12.50;99.90;;;;;;2091392;28;20389;-68
2024/03/18 01:09:59;;;;;;;10.57;9.48;;;12.50;99.90;;;;;;2091814;28;20032;-70
2024/03/18 01:11:00;;;;;;;13.68;10.35;;;12.50;99.90;;;;;;2089781;28;20031;-68
2024/03/18 01:12:00;;;;;;;11.52;9.35;;;12.50;99.90;;;;;;2091763;28;20057;-70
2024/03/18 01:13:02;;;;;;;10.45;9.10;;;12.50;99.90;;;;;;2091147;28;20033;-70
2024/03/18 01:14:03;;;;;;;13.13;10.18;;;12.50;99.90;;;;;;2092088;28;20025;-68
2024/03/18 01:15:04;;;;;;;11.60;9.82;;;12.50;99.90;;;;;;2090390;28;20056;-72
2024/03/18 01:16:07;;;;;;;13.43;10.15;;;12.50;99.90;;;;;;2093649;28;20090;-69
2024/03/18 01:17:08;;;;;;;13.90;10.23;;;12.50;99.90;;;;;;2090538;28;20043;-72
2024/03/18 01:18:09;;;;;;;10.70;9.52;;;12.40;99.90;;;;;;2090754;28;20550;-67
2024/03/18 01:19:09;;;;;;;12.43;10.20;;;12.50;99.90;;;;;;2090429;28;20141;-72
2024/03/18 01:20:14;;;;;;;10.57;9.48;;;12.40;99.90;;;;;;2092838;28;20043;-70
2024/03/18 01:21:15;;;;;;;11.25;9.20;;;12.40;99.90;;;;;;2091591;28;20020;-70
2024/03/18 01:22:16;;;;;;;10.98;9.85;;;12.40;99.90;;;;;;2091511;28;20052;-71
2024/03/18 01:23:16;;;;;;;11.88;9.40;;;12.40;99.90;;;;;;2091010;28;20115;-71
2024/03/18 01:24:17;;;;;;;9.45;8.55;;;12.40;99.90;;;;;;2090080;28;20453;-71
2024/03/18 01:25:17;;;;;;;11.02;8.93;;;12.30;99.90;;;;;;2090141;28;20110;-71
2024/03/18 01:26:18;;;;;;;12.05;9.82;;;12.30;99.90;;;;;;2091059;28;20021;-70
2024/03/18 01:27:18;;;;;;;12.43;10.10;;;12.30;99.90;;;;;;2092193;28;20950;-71
2024/03/18 01:28:19;;;;;;;13.45;10.18;;;12.30;99.90;;;;;;2092089;28;20029;-72
2024/03/18 01:29:21;;;;;;;11.00;9.65;;;12.30;99.90;;;;;;2091255;28;20416;-69
2024/03/18 01:30:21;;;;;;;12.77;9.82;;;12.30;99.90;;;;;;2093608;28;20052;-69
2024/03/18 01:31:22;;;;;;;10.75;9.52;;;12.40;99.90;;;;;;2091381;28;20612;-69
2024/03/18 01:32:23;;;;;;;13.15;10.45;;;12.30;99.90;;;;;;2093201;28;20017;-69
2024/03/18 01:33:23;;;;;;;13.48;10.73;;;12.30;99.90;;;;;;2090202;28;20876;-72
2024/03/18 01:34:24;;;;;;;12.07;10.38;;;12.30;99.90;;;;;;2091162;28;20032;-70
2024/03/18 01:35:25;;;;;;;11.27;10.02;;;12.30;99.90;;;;;;2092103;28;20029;-69
2024/03/18 01:36:25;;;;;;;12.05;10.20;;;12.30;99.90;;;;;;2092708;28;20075;-67
2024/03/18 01:37:26;;;;;;;12.13;9.82;;;12.30;99.90;;;;;;2091698;28;20086;-67
2024/03/18 01:38:28;;;;;;;12.93;10.50;;;12.30;99.90;;;;;;2093844;28;20530;-70
2024/03/18 01:39:29;;;;;;;14.05;10.50;;;12.30;99.90;;;;;;2091732;28;20078;-70
2024/03/18 01:40:30;;;;;;;14.18;10.30;;;12.30;99.90;;;;;;2091084;28;20068;-70
2024/03/18 01:41:31;;;;;;;12.00;10.02;;;12.30;99.90;;;;;;2091572;28;20039;-70
2024/03/18 01:42:31;;;;;;;12.50;8.85;;;12.30;99.90;;;;;;2092633;28;20049;-70
2024/03/18 01:43:37;;;;;;;11.55;9.52;;;12.30;99.90;;;;;;2091924;28;20036;-69
2024/03/18 01:44:52;;;;;;;12.38;9.13;;;12.30;99.90;;;;;;2094989;28;20040;-72
2024/03/18 01:45:52;;;;;;;11.50;10.15;;;12.30;99.90;;;;;;2093091;28;20492;-71
2024/03/18 01:46:53;;;;;;;11.00;9.85;;;12.30;99.90;;;;;;2094303;28;20135;-71
2024/03/18 01:47:57;;;;;;;13.07;9.60;;;12.20;99.90;;;;;;2094229;28;20028;-70
2024/03/18 01:48:57;;;;;;;12.40;9.43;;;12.20;99.90;;;;;;2093635;28;20031;-69
2024/03/18 01:49:58;;;;;;;10.77;8.73;;;12.20;99.90;;;;;;2092080;28;20028;-70
2024/03/18 01:50:59;;;;;;;12.02;9.30;;;12.20;99.90;;;;;;2092619;28;20123;-69
2024/03/18 01:52:00;;;;;;;12.00;9.88;;;12.30;99.90;;;;;;2090626;28;20055;-67
2024/03/18 01:53:01;;;;;;;12.02;9.93;;;12.30;99.90;;;;;;2093797;28;20028;-70
2024/03/18 01:54:02;;;;;;;11.98;8.73;;;12.30;99.90;;;;;;2093160;28;20532;-69
2024/03/18 01:55:03;;;;;;;10.82;8.77;;;12.20;99.90;;;;;;2094519;28;20028;-70
2024/03/18 01:56:09;;;;;;;11.85;9.45;;;12.30;99.90;;;;;;2091964;28;20142;-70
2024/03/18 01:57:10;;;;;;;9.93;8.93;;;12.30;99.90;;;;;;2093677;28;20024;-70
2024/03/18 01:58:10;;;;;;;11.98;8.73;;;12.20;99.90;;;;;;2093213;28;20024;-70
2024/03/18 01:59:11;;;;;;;10.65;9.32;;;12.20;99.90;;;;;;2092688;28;20381;-70
2024/03/18 02:00:23;;;;;;;11.63;9.55;;;12.20;99.90;;;;;;2093622;28;20025;-70
2024/03/18 02:01:23;;;;;;;13.15;10.25;;;12.20;99.90;;;;;;2093461;28;20025;-70
2024/03/18 02:02:24;;;;;;;10.05;8.90;;;12.20;99.90;;;;;;2093311;28;20049;-70
2024/03/18 02:03:24;;;;;;;10.52;9.43;;;12.20;99.90;;;;;;2093997;28;20020;-71
2024/03/18 02:04:25;;;;;;;12.60;9.70;;;12.20;99.90;;;;;;2092528;28;20068;-70
2024/03/18 02:05:26;;;;;;;11.90;9.13;;;12.20;99.90;;;;;;2093680;28;20028;-68
2024/03/18 02:06:26;;;;;;;11.20;10.10;;;12.10;99.90;;;;;;2092560;28;20033;-68
2024/03/18 02:07:29;;;;;;;11.38;9.60;;;12.10;99.90;;;;;;2092157;28;20038;-70
2024/03/18 02:08:30;;;;;;;12.13;9.40;;;12.10;99.90;;;;;;2092684;28;20043;-70
2024/03/18 02:09:31;;;;;;;12.75;9.45;;;12.10;99.90;;;;;;2093836;28;20021;-70
2024/03/18 02:10:31;;;;;;;12.95;9.77;;;12.10;99.90;;;;;;2092033;28;20076;-70
2024/03/18 02:11:32;;;;;;;11.68;10.02;;;12.10;99.90;;;;;;2093968;28;20091;-71
2024/03/18 02:12:33;;;;;;;12.32;9.30;;;12.10;99.90;;;;;;2094934;28;20627;-70
2024/03/18 02:13:34;;;;;;;11.23;10.00;;;12.10;99.90;;;;;;2091843;28;20566;-73
2024/03/18 02:14:35;;;;;;;13.07;9.45;;;12.00;99.90;;;;;;2092823;28;20095;-70
2024/03/18 02:15:35;;;;;;;11.57;9.85;;;12.00;99.90;;;;;;2092202;28;20551;-70
2024/03/18 02:16:36;;;;;;;10.60;9.50;;;12.00;99.90;;;;;;2093406;28;20396;-70
2024/03/18 02:17:37;;;;;;;11.90;10.00;;;12.00;99.90;;;;;;2093420;28;20028;-70
2024/03/18 02:18:37;;;;;;;11.23;9.38;;;12.00;99.90;;;;;;2092204;28;20108;-70
2024/03/18 02:19:41;;;;;;;10.15;9.15;;;12.00;99.90;;;;;;2093749;28;20053;-70
2024/03/18 02:20:41;;;;;;;11.32;10.15;;;12.00;99.90;;;;;;2092911;28;20107;-70
2024/03/18 02:21:42;;;;;;;11.63;9.50;;;12.00;99.90;;;;;;2091847;28;20021;-70
2024/03/18 02:22:44;;;;;;;11.73;10.25;;;12.00;99.90;;;;;;2093646;28;20024;-70
2024/03/18 02:23:45;;;;;;;11.57;8.63;;;12.00;99.90;;;;;;2093099;28;20088;-70
2024/03/18 02:24:45;;;;;;;10.25;9.25;;;12.00;99.90;;;;;;2094248;28;20029;-70
2024/03/18 02:25:46;;;;;;;12.70;10.02;;;12.00;99.90;;;;;;2092492;28;20045;-70
2024/03/18 02:26:46;;;;;;;11.82;9.52;;;12.00;99.90;;;;;;2094212;28;20393;-70
2024/03/18 02:27:49;;;;;;;11.27;10.05;;;12.10;99.90;;;;;;2092787;28;20025;-71
2024/03/18 02:28:51;;;;;;;11.30;10.10;;;12.00;99.90;;;;;;2092224;28;20103;-68
2024/03/18 02:29:52;;;;;;;10.68;9.35;;;12.00;99.90;;;;;;2092852;28;20035;-70
2024/03/18 02:30:52;;;;;;;11.32;9.82;;;12.10;99.90;;;;;;2091714;28;20091;-70
2024/03/18 02:31:53;;;;;;;9.98;8.65;;;12.10;99.90;;;;;;2092295;28;20117;-70
2024/03/18 02:32:54;;;;;;;11.73;9.88;;;12.10;99.90;;;;;;2091038;28;20028;-71
2024/03/18 02:33:54;;;;;;;11.05;9.30;;;12.10;99.90;;;;;;2091953;28;20144;-69
2024/03/18 02:34:55;;;;;;;11.20;9.80;;;12.10;99.90;;;;;;2093711;28;20064;-70
2024/03/18 02:36:00;;;;;;;11.57;10.38;;;12.10;99.90;;;;;;2093199;28;20061;-70
2024/03/18 02:37:02;;;;;;;9.75;8.60;;;12.10;99.90;;;;;;2093377;28;20067;-70
2024/03/18 02:38:03;;;;;;;11.32;9.45;;;12.10;99.90;;;;;;2092276;28;20493;-70
2024/03/18 02:39:07;;;;;;;10.43;9.00;;;12.10;99.90;;;;;;2093645;28;20041;-70
2024/03/18 02:40:08;;;;;;;12.52;9.40;;;12.10;99.90;;;;;;2093641;28;20028;-71
2024/03/18 02:41:09;;;;;;;17.58;10.30;;;12.10;99.90;;;;;;2092452;28;20103;-70
2024/03/18 02:42:10;;;;;;;12.57;9.98;;;12.10;99.90;;;;;;2091711;28;20031;-70
2024/03/18 02:43:11;;;;;;;10.73;9.63;;;12.10;99.90;;;;;;2092252;28;20044;-71
2024/03/18 02:44:12;;;;;;;11.52;9.80;;;12.10;99.90;;;;;;2090385;28;20024;-70
2024/03/18 02:45:13;;;;;;;10.48;9.25;;;12.10;99.90;;;;;;2093402;28;20028;-70
2024/03/18 02:46:13;;;;;;;11.57;10.27;;;12.10;99.90;;;;;;2091786;28;20535;-70
2024/03/18 02:47:14;;;;;;;9.93;8.93;;;12.10;99.90;;;;;;2093280;28;20103;-70
2024/03/18 02:48:14;;;;;;;9.82;8.75;;;12.10;99.90;;;;;;2091667;28;20036;-69
2024/03/18 02:49:15;;;;;;;11.65;9.75;;;12.10;99.90;;;;;;2093833;28;20078;-70
2024/03/18 02:50:18;;;;;;;10.80;8.85;;;12.10;99.90;;;;;;2090979;28;20021;-70
2024/03/18 02:51:19;;;;;;;9.80;8.73;;;12.10;99.90;;;;;;2094500;28;20029;-70
2024/03/18 02:52:19;;;;;;;7.80;7.07;;;12.20;99.90;;;;;;2095192;28;20024;-71
2024/03/18 02:53:20;;;;;;;10.32;7.80;;;12.20;99.90;;;;;;2091871;28;20035;-71
2024/03/18 02:54:20;;;;;;;8.85;7.95;;;12.20;99.90;;;;;;2091496;28;20769;-70
2024/03/18 02:55:21;;;;;;;10.05;8.48;;;12.20;99.90;;;;;;2092723;28;20021;-70
2024/03/18 02:56:22;;;;;;;9.48;8.45;;;12.20;99.90;;;;;;2090280;28;20116;-71
2024/03/18 02:57:22;;;;;;;11.10;9.30;;;12.20;99.90;;;;;;2092175;28;20025;-70
2024/03/18 02:58:23;;;;;;;9.75;8.82;;;12.20;99.90;;;;;;2092158;28;20383;-69
2024/03/18 02:59:24;;;;;;;10.55;9.23;;;12.20;99.90;;;;;;2094045;28;20101;-70
2024/03/18 03:00:24;;;;;;;9.45;8.45;;;12.20;99.90;;;;;;2095121;28;20037;-70
2024/03/18 03:01:26;;;;;;;10.32;8.63;;;12.20;99.90;;;;;;2093569;28;20020;-70
2024/03/18 03:02:30;;;;;;;11.60;9.02;;;12.20;99.90;;;;;;2091546;28;20458;-71
2024/03/18 03:03:31;;;;;;;8.90;8.00;;;12.20;99.90;;;;;;2092573;28;20043;-70
2024/03/18 03:04:31;;;;;;;9.23;8.32;;;12.20;99.90;;;;;;2094194;28;20045;-71
2024/03/18 03:05:32;;;;;;;11.18;8.30;;;12.30;99.90;;;;;;2094177;28;20074;-69
2024/03/18 03:06:32;;;;;;;11.15;8.75;;;12.30;99.90;;;;;;2092097;28;20017;-72
2024/03/18 03:07:33;;;;;;;8.80;7.90;;;12.20;99.90;;;;;;2093688;28;20125;-71
2024/03/18 03:08:34;;;;;;;10.70;8.40;;;12.30;99.90;;;;;;2090955;28;20021;-72
2024/03/18 03:09:34;;;;;;;9.65;8.52;;;12.30;99.90;;;;;;2091570;28;20025;-71
2024/03/18 03:10:35;;;;;;;10.05;8.52;;;12.20;99.90;;;;;;2090542;28;20032;-72
2024/03/18 03:11:36;;;;;;;8.43;7.63;;;12.20;99.90;;;;;;2091316;28;20111;-72
2024/03/18 03:12:36;;;;;;;9.80;8.43;;;12.30;99.90;;;;;;2090869;28;20500;-71
2024/03/18 03:13:37;;;;;;;9.43;8.40;;;12.20;99.90;;;;;;2094006;28;20477;-72
2024/03/18 03:14:41;;;;;;;7.18;6.47;;;12.30;99.90;;;;;;2090768;28;20035;-72
2024/03/18 03:15:42;;;;;;;8.95;8.10;;;12.30;99.90;;;;;;2092387;28;20427;-72
2024/03/18 03:16:42;;;;;;;9.65;7.75;;;12.30;99.90;;;;;;2092847;28;20033;-71
2024/03/18 03:17:43;;;;;;;8.88;7.97;;;12.30;99.90;;;;;;2093143;28;20025;-72
2024/03/18 03:18:44;;;;;;;8.18;7.38;;;12.30;99.90;;;;;;2092381;28;20427;-72
2024/03/18 03:19:46;;;;;;;9.18;8.18;;;12.30;99.90;;;;;;2092576;28;20068;-72
2024/03/18 03:20:48;;;;;;;9.90;8.32;;;12.30;99.90;;;;;;2091690;28;20029;-71
2024/03/18 03:21:49;;;;;;;9.30;8.32;;;12.30;99.90;;;;;;2093468;28;20052;-70
2024/03/18 03:22:49;;;;;;;8.88;8.02;;;12.30;99.90;;;;;;2092362;28;20088;-72
2024/03/18 03:23:50;;;;;;;9.40;8.30;;;12.30;99.90;;;;;;2092630;28;20222;-72
2024/03/18 03:24:51;;;;;;;8.40;7.60;;;12.20;99.90;;;;;;2091575;28;20488;-72
2024/03/18 03:25:54;;;;;;;7.95;7.25;;;12.30;99.90;;;;;;2092321;28;20021;-72
2024/03/18 03:26:56;;;;;;;9.70;7.90;;;12.30;99.90;;;;;;2090436;28;20029;-72
2024/03/18 03:27:59;;;;;;;10.50;7.75;;;12.30;99.90;;;;;;2093500;28;20024;-72
2024/03/18 03:29:03;;;;;;;8.63;7.78;;;12.20;99.90;;;;;;2090386;28;20032;-71
2024/03/18 03:30:04;;;;;;;9.93;7.22;;;12.20;99.90;;;;;;2092886;28;20029;-72
2024/03/18 03:31:08;;;;;;;8.98;7.80;;;12.20;99.90;;;;;;2090856;28;20032;-71
2024/03/18 03:32:15;;;;;;;7.75;6.95;;;12.20;99.90;;;;;;2091945;28;20025;-72
2024/03/18 03:33:16;;;;;;;8.10;7.18;;;12.20;99.90;;;;;;2091176;28;20024;-72
2024/03/18 03:34:16;;;;;;;8.13;7.30;;;12.20;99.90;;;;;;2091437;28;20029;-72
2024/03/18 03:35:17;;;;;;;8.57;7.75;;;12.20;99.90;;;;;;2092814;28;20047;-72
2024/03/18 03:36:17;;;;;;;7.90;7.10;;;12.30;99.90;;;;;;2091748;28;20465;-71
2024/03/18 03:37:26;;;;;;;6.57;5.93;;;12.30;99.90;;;;;;2091582;28;20051;-72
2024/03/18 03:38:26;;;;;;;6.45;5.85;;;12.30;99.90;;;;;;2092020;28;20033;-71
2024/03/18 03:39:27;;;;;;;8.38;5.95;;;12.30;99.90;;;;;;2092851;28;20037;-71
2024/03/18 03:40:28;;;;;;;7.50;6.78;;;12.30;99.90;;;;;;2091771;28;20037;-72
2024/03/18 03:41:28;;;;;;;7.53;6.82;;;12.30;99.90;;;;;;2085306;28;20122;-72
2024/03/18 03:42:29;;;;;;;7.50;6.72;;;12.30;99.90;;;;;;2095833;28;20485;-72
2024/03/18 03:43:29;;;;;;;7.15;6.43;;;12.30;99.90;;;;;;2091959;28;20063;-73
2024/03/18 03:44:30;;;;;;;7.80;7.10;;;12.30;99.90;;;;;;2092380;28;20043;-71
2024/03/18 03:45:31;;;;;;;7.70;7.00;;;12.30;99.90;;;;;;2092167;28;20017;-71
2024/03/18 03:46:31;;;;;;;7.80;7.10;;;12.30;99.90;;;;;;2092158;28;20053;-72
2024/03/18 03:47:33;;;;;;;7.63;6.82;;;12.30;99.90;;;;;;2092293;28;20070;-72
2024/03/18 03:48:33;;;;;;;7.35;6.63;;;12.30;99.90;;;;;;2094865;28;20027;-72
2024/03/18 03:49:37;;;;;;;7.05;6.35;;;12.30;99.90;;;;;;2086776;28;20095;-72
2024/03/18 03:50:37;;;;;;;7.20;6.60;;;12.40;99.90;;;;;;2093173;28;20109;-72
2024/03/18 03:51:38;;;;;;;7.28;6.57;;;12.30;99.90;;;;;;2091140;28;20099;-72
2024/03/18 03:52:41;;;;;;;8.75;6.90;;;12.30;99.90;;;;;;2090944;28;20029;-72
2024/03/18 03:53:42;;;;;;;7.57;6.45;;;12.30;99.90;;;;;;2093059;28;20036;-72
2024/03/18 03:54:43;;;;;;;6.75;6.05;;;12.30;99.90;;;;;;2089908;28;20508;-72
2024/03/18 03:55:44;;;;;;;8.82;6.68;;;12.40;99.90;;;;;;2099592;28;20416;-72
2024/03/18 03:56:45;;;;;;;7.47;6.78;;;12.30;99.90;;;;;;2090979;28;20052;-69
2024/03/18 03:57:51;;;;;;;7.65;6.88;;;12.30;99.90;;;;;;2092401;28;20039;-72
2024/03/18 03:58:52;;;;;;;7.05;6.10;;;12.30;99.90;;;;;;2092808;28;20032;-72
2024/03/18 03:59:53;;;;;;;7.32;6.63;;;12.30;99.90;;;;;;2091025;28;20042;-72
2024/03/18 04:00:54;;;;;;;6.88;6.25;;;12.40;99.90;;;;;;2093487;28;20039;-72
2024/03/18 04:01:56;;;;;;;7.70;6.50;;;12.30;99.90;;;;;;2093324;28;20082;-72
2024/03/18 04:03:06;;;;;;;7.35;6.65;;;12.30;99.90;;;;;;2093888;28;20035;-69
2024/03/18 04:04:10;;;;;;;6.28;5.68;;;12.30;99.90;;;;;;2093221;28;20100;-71
2024/03/18 04:05:10;;;;;;;7.20;6.50;;;12.30;99.90;;;;;;2091271;28;20037;-72
2024/03/18 04:06:11;;;;;;;6.53;5.95;;;12.30;99.90;;;;;;2092404;28;20027;-70
2024/03/18 04:07:13;;;;;;;6.90;6.22;;;12.30;99.90;;;;;;2091497;28;20021;-72
2024/03/18 04:08:13;;;;;;;7.53;6.63;;;12.30;99.90;;;;;;2092508;28;20039;-72
2024/03/18 04:09:15;;;;;;;7.93;6.38;;;12.30;99.90;;;;;;2093178;28;20457;-72
2024/03/18 04:10:15;;;;;;;6.65;6.05;;;12.40;99.90;;;;;;2090297;28;20029;-72
2024/03/18 04:11:17;;;;;;;8.68;6.38;;;12.30;99.90;;;;;;2090986;28;20096;-71
2024/03/18 04:12:18;;;;;;;5.72;5.22;;;12.30;99.90;;;;;;2091732;28;20025;-72
2024/03/18 04:13:19;;;;;;;5.78;5.18;;;12.30;99.90;;;;;;2090456;28;20021;-72
2024/03/18 04:14:19;;;;;;;5.93;5.32;;;12.40;99.90;;;;;;2092643;28;20082;-70
2024/03/18 04:15:20;;;;;;;7.13;6.40;;;12.40;99.90;;;;;;2091942;28;21037;-72
2024/03/18 04:16:22;;;;;;;6.57;5.97;;;12.30;99.90;;;;;;2090805;28;20116;-72
2024/03/18 04:17:25;;;;;;;6.72;6.07;;;12.40;99.90;;;;;;2092474;28;20098;-72
2024/03/18 04:18:26;;;;;;;7.43;6.72;;;12.40;99.90;;;;;;2092366;28;20100;-71
2024/03/18 04:19:27;;;;;;;7.90;6.28;;;12.30;99.90;;;;;;2088034;28;20052;-72
2024/03/18 04:20:28;;;;;;;6.68;6.07;;;12.30;99.90;;;;;;2090215;28;20052;-73
2024/03/18 04:21:29;;;;;;;7.68;6.25;;;12.40;99.90;;;;;;2098141;28;20396;-72
2024/03/18 04:22:32;;;;;;;7.18;6.05;;;12.40;99.90;;;;;;2091069;28;20054;-72
2024/03/18 04:23:33;;;;;;;6.72;6.13;;;12.40;99.90;;;;;;2091556;28;20072;-72
2024/03/18 04:24:34;;;;;;;9.43;6.35;;;12.30;99.90;;;;;;2090807;28;20027;-72
2024/03/18 04:25:37;;;;;;;7.03;6.03;;;12.30;99.90;;;;;;2091351;28;20017;-72
2024/03/18 04:26:37;;;;;;;6.30;5.70;;;12.40;99.90;;;;;;2092719;28;20151;-72
2024/03/18 04:27:38;;;;;;;7.00;6.30;;;12.30;99.90;;;;;;2091907;28;20078;-72
2024/03/18 04:28:38;;;;;;;7.18;6.45;;;12.40;99.90;;;;;;2092919;28;20063;-70
2024/03/18 04:29:40;;;;;;;7.13;6.53;;;12.40;99.90;;;;;;2091505;28;20070;-72
2024/03/18 04:30:42;;;;;;;8.07;5.90;;;12.30;99.90;;;;;;2092161;28;20028;-72
2024/03/18 04:31:42;;;;;;;6.32;5.80;;;12.30;99.90;;;;;;2091118;28;20058;-72
2024/03/18 04:32:43;;;;;;;6.63;5.97;;;12.30;99.90;;;;;;2093223;28;20070;-72
2024/03/18 04:33:44;;;;;;;6.25;5.65;;;12.30;99.90;;;;;;2090337;28;20028;-72
2024/03/18 04:34:44;;;;;;;6.00;5.38;;;12.30;99.90;;;;;;2093174;28;20101;-72
2024/03/18 04:35:47;;;;;;;6.07;5.50;;;12.30;99.90;;;;;;2092727;28;20415;-71
2024/03/18 04:36:48;;;;;;;6.80;5.85;;;12.30;99.90;;;;;;2091988;28;20032;-71
2024/03/18 04:37:51;;;;;;;7.10;5.22;;;12.30;99.90;;;;;;2092689;28;20052;-72
2024/03/18 04:38:55;;;;;;;5.38;4.72;;;12.30;99.90;;;;;;2089958;28;20035;-72
2024/03/18 04:39:55;;;;;;;5.97;5.38;;;12.30;99.90;;;;;;2091259;28;20405;-72
2024/03/18 04:40:58;;;;;;;6.68;6.03;;;12.30;99.90;;;;;;2090661;28;20024;-72
2024/03/18 04:41:59;;;;;;;6.78;5.82;;;12.30;99.90;;;;;;2091438;28;20027;-72
2024/03/18 04:43:00;;;;;;;7.22;5.50;;;12.30;99.90;;;;;;2092083;28;20112;-72
2024/03/18 04:44:01;;;;;;;6.13;5.40;;;12.30;99.90;;;;;;2091452;28;20199;-71
2024/03/18 04:45:02;;;;;;;6.25;5.75;;;12.30;99.90;;;;;;2090501;28;20074;-72
2024/03/18 04:46:05;;;;;;;6.20;5.60;;;12.30;99.90;;;;;;2092365;28;20032;-71
2024/03/18 04:47:06;;;;;;;6.63;6.03;;;12.30;99.90;;;;;;2091433;28;20033;-71
2024/03/18 04:48:08;;;;;;;5.95;5.45;;;12.30;99.90;;;;;;2091927;28;20018;-71
2024/03/18 04:49:08;;;;;;;6.35;5.70;;;12.30;99.90;;;;;;2091102;28;20032;-71
2024/03/18 04:50:14;;;;;;;6.25;5.68;;;12.20;99.90;;;;;;2091374;28;20024;-72
2024/03/18 04:51:14;;;;;;;6.28;5.68;;;12.20;99.90;;;;;;2092947;28;20029;-72
2024/03/18 04:52:15;;;;;;;5.82;5.30;;;12.20;99.90;;;;;;2091283;28;20025;-72
2024/03/18 04:53:16;;;;;;;6.38;5.78;;;12.20;99.90;;;;;;2090959;28;20156;-72
2024/03/18 04:54:16;;;;;;;6.28;5.70;;;12.20;99.90;;;;;;2092511;28;20045;-72
2024/03/18 04:55:18;;;;;;;5.75;5.25;;;12.20;99.90;;;;;;2092130;28;20120;-72
2024/03/18 04:56:18;;;;;;;6.55;5.95;;;12.20;99.90;;;;;;2090756;28;20020;-70
2024/03/18 04:57:19;;;;;;;5.55;5.10;;;12.20;99.90;;;;;;2095317;28;20087;-70
2024/03/18 04:58:19;;;;;;;6.38;5.38;;;12.20;99.90;;;;;;2094458;28;20520;-72
2024/03/18 04:59:20;;;;;;;6.20;5.60;;;12.20;99.90;;;;;;2093085;28;20041;-71
2024/03/18 05:00:24;;;;;;;6.78;6.13;;;12.20;99.90;;;;;;2093697;28;20042;-72
2024/03/18 05:01:33;;;;;;;5.88;5.38;;;12.20;99.90;;;;;;2091557;28;20108;-72
2024/03/18 05:02:34;;;;;;;6.47;5.88;;;12.20;99.90;;;;;;2092436;28;20112;-72
2024/03/18 05:03:34;;;;;;;7.05;6.40;;;12.20;99.90;;;;;;2090787;28;20036;-71
2024/03/18 05:04:35;;;;;;;8.23;6.88;;;12.20;99.90;;;;;;2091107;28;20025;-72
2024/03/18 05:05:36;;;;;;;8.05;7.35;;;12.20;99.90;;;;;;2092320;28;20025;-71
2024/03/18 05:06:37;;;;;;;6.93;6.32;;;12.20;99.90;;;;;;2090819;28;20090;-71
2024/03/18 05:07:38;;;;;;;6.82;6.10;;;12.20;99.90;;;;;;2091846;28;20051;-71
2024/03/18 05:08:38;;;;;;;6.63;6.03;;;12.20;99.90;;;;;;2091355;28;20016;-72
2024/03/18 05:09:39;;;;;;;6.45;5.88;;;12.20;99.90;;;;;;2090913;28;20029;-71
2024/03/18 05:10:40;;;;;;;6.70;6.10;;;12.20;99.90;;;;;;2088299;28;20025;-72
2024/03/18 05:11:41;;;;;;;6.72;6.03;;;12.20;99.90;;;;;;2091594;28;20078;-72
2024/03/18 05:12:41;;;;;;;6.10;5.50;;;12.20;99.90;;;;;;2091042;28;20033;-71
2024/03/18 05:13:45;;;;;;;6.63;6.00;;;12.20;99.90;;;;;;2092304;28;20473;-69
2024/03/18 05:14:45;;;;;;;9.32;6.53;;;12.20;99.90;;;;;;2094455;28;20436;-71
2024/03/18 05:15:48;;;;;;;7.03;6.40;;;12.20;99.90;;;;;;2087048;28;20101;-71
2024/03/18 05:16:48;;;;;;;6.00;5.40;;;12.20;99.90;;;;;;2086912;28;20017;-71
2024/03/18 05:17:49;;;;;;;6.85;6.25;;;12.20;99.90;;;;;;2092506;28;20025;-72